Birmingham International Airport (BHM)

 

Airport Diagram
Current Weather/Forecast (VFR Conditions)
METAR KBHM 290253Z 00000KT 10SM BKN250 10/07 A3014 RMK AO2 SLP203 T01000072 50001 $
TAF KBHM 282338Z 2900/2924 36005KT P6SM OVC250 FM291500 13007KT P6SM OVC035 PROB30 2915/2918 4SM SHRA BR OVC025 FM291800 13006KT 6SM SHRA BR OVC017 PROB30 2918/2919 4SM TSRA BR OVC008CB FM291900 11006KT 6SM SHRA BR OVC008 PROB30 2919/2920 4SM TSRA BR OVC004CB FM292000 11007KT 5SM SHRA BR OVC005 PROB30 2920/2924 2SM TSRA BR OVC003CB

All Charts
General
Chart Name Download
AIRPORT DIAGRAM
TAKEOFF MINIMUMS
ALTERNATE MINIMUMS
LAHSO

Departures
Chart Name Download
BIRMINGHAM SEVEN
BIRMINGHAM SEVEN, CONT.1

Approaches
Chart Name Download
ILS OR LOC RWY 06
ILS OR LOC RWY 24
ILS RWY 06 (CAT II)
ILS RWY 24 (SA CAT II)
RNAV (RNP) Z RWY 06
RNAV (RNP) Z RWY 24
RNAV (GPS) RWY 18
RNAV (GPS) RWY 36
RNAV (GPS) Y RWY 06
RNAV (GPS) Y RWY 24
LOC RWY 18


Inbound Traffic (Arrivals)

No inbound traffic.


Outbound Traffic (Departures)

No outbound traffic.